createdAt,value
2023-02-06T00:00:34.915Z,2.85
2023-02-06T00:03:01.854Z,2.83
2023-02-06T00:05:28.664Z,2.84
2023-02-06T00:07:55.606Z,2.83
2023-02-06T00:10:22.084Z,2.75
2023-02-06T00:12:48.924Z,2.81
2023-02-06T00:15:18.860Z,2.79
2023-02-06T00:17:45.532Z,2.77
2023-02-06T00:20:14.216Z,2.72
2023-02-06T00:22:40.844Z,2.71
2023-02-06T00:25:08.242Z,2.65
2023-02-06T00:27:34.897Z,2.54
2023-02-06T00:30:01.556Z,2.45
2023-02-06T00:32:28.465Z,2.40
2023-02-06T00:34:54.989Z,2.35
2023-02-06T00:37:22.084Z,2.37
2023-02-06T00:39:48.698Z,2.32
2023-02-06T00:42:15.764Z,2.30
2023-02-06T00:44:42.218Z,2.29
2023-02-06T00:47:09.435Z,2.25
2023-02-06T00:49:36.234Z,2.22
2023-02-06T00:52:03.052Z,2.17
2023-02-06T00:54:30.094Z,2.15
2023-02-06T00:56:56.685Z,2.13
2023-02-06T00:59:23.372Z,2.08
2023-02-06T01:01:50.182Z,1.98
2023-02-06T01:04:16.787Z,2.02
2023-02-06T01:06:43.782Z,1.90
2023-02-06T01:09:10.270Z,1.87
2023-02-06T01:11:36.986Z,1.89
2023-02-06T01:14:03.559Z,1.64
2023-02-06T01:16:30.491Z,1.80
2023-02-06T01:18:57.072Z,1.77
2023-02-06T01:21:24.976Z,1.72
2023-02-06T01:23:53.306Z,1.67
2023-02-06T01:26:23.163Z,1.60
2023-02-06T01:28:50.463Z,1.48
2023-02-06T01:31:20.376Z,1.66
2023-02-06T01:33:49.136Z,1.62
2023-02-06T01:36:16.861Z,1.65
2023-02-06T01:38:43.987Z,1.49
2023-02-06T01:41:12.300Z,1.55
2023-02-06T01:43:42.961Z,1.50
2023-02-06T01:46:29.420Z,1.50
2023-02-06T01:49:28.662Z,1.53
2023-02-06T01:52:23.394Z,1.50
2023-02-06T01:55:09.938Z,1.43
2023-02-06T01:57:57.012Z,1.36
2023-02-06T02:00:44.152Z,1.22
2023-02-06T02:03:11.600Z,1.31
2023-02-06T02:05:40.677Z,1.29
2023-02-06T02:08:25.849Z,1.23
2023-02-06T02:10:52.568Z,1.16
2023-02-06T02:13:19.545Z,1.18
2023-02-06T02:16:07.515Z,1.26
2023-02-06T02:18:55.852Z,1.09
2023-02-06T02:21:37.670Z,1.07
2023-02-06T02:24:32.124Z,1.17
2023-02-06T02:27:41.862Z,1.12
2023-02-06T02:30:27.031Z,1.10
2023-02-06T02:33:12.286Z,1.05
2023-02-06T02:35:54.395Z,1.09
2023-02-06T02:38:36.378Z,1.04
2023-02-06T02:41:18.584Z,1.05
2023-02-06T02:43:51.629Z,1.09
2023-02-06T02:46:24.893Z,1.13
2023-02-06T02:48:54.986Z,1.09
2023-02-06T02:51:22.432Z,0.89
2023-02-06T02:53:49.110Z,0.88
2023-02-06T02:56:22.636Z,0.80
2023-02-06T02:58:58.097Z,0.81
2023-02-06T03:01:38.279Z,0.70
2023-02-06T03:04:12.585Z,0.73
2023-02-06T03:06:58.228Z,0.66
2023-02-06T03:09:36.213Z,0.74
2023-02-06T03:12:13.153Z,0.74
2023-02-06T03:14:53.761Z,0.58
2023-02-06T03:17:33.337Z,0.60
2023-02-06T03:20:02.749Z,0.58
2023-02-06T03:22:31.012Z,0.50
2023-02-06T03:24:59.068Z,0.54
2023-02-06T03:27:27.468Z,0.52
2023-02-06T03:29:56.332Z,0.51
2023-02-06T03:32:28.680Z,0.60
2023-02-06T03:35:14.331Z,0.65
2023-02-06T03:37:40.944Z,0.54
2023-02-06T03:40:08.861Z,0.52
2023-02-06T03:42:41.357Z,0.57
2023-02-06T03:45:24.205Z,0.60
2023-02-06T03:47:53.491Z,0.57
2023-02-06T03:50:21.066Z,0.62
2023-02-06T03:52:50.940Z,0.68
2023-02-06T03:55:21.216Z,0.68
2023-02-06T03:57:50.362Z,0.66
2023-02-06T04:00:17.601Z,0.63
2023-02-06T04:02:47.504Z,0.73
2023-02-06T04:05:16.494Z,0.71
2023-02-06T04:07:43.595Z,0.69
2023-02-06T04:10:10.732Z,0.68
2023-02-06T04:12:37.509Z,0.65
2023-02-06T04:15:05.014Z,0.60
2023-02-06T04:17:49.602Z,0.60
2023-02-06T04:20:22.856Z,0.63
2023-02-06T04:22:50.276Z,0.62
2023-02-06T04:25:16.802Z,0.64
2023-02-06T04:27:43.774Z,0.60
2023-02-06T04:30:11.097Z,0.55
2023-02-06T04:32:37.584Z,0.52
2023-02-06T04:35:04.925Z,0.58
2023-02-06T04:37:32.982Z,0.54
2023-02-06T04:39:59.672Z,0.55
2023-02-06T04:42:26.186Z,0.64
2023-02-06T04:44:52.826Z,0.63
2023-02-06T04:47:19.379Z,0.60
2023-02-06T04:49:46.100Z,0.61
2023-02-06T04:52:12.942Z,0.62
2023-02-06T04:54:39.714Z,0.61
2023-02-06T04:57:06.491Z,0.71
2023-02-06T04:59:33.257Z,0.67
2023-02-06T05:02:00.133Z,0.65
2023-02-06T05:04:26.702Z,0.55
2023-02-06T05:06:53.435Z,0.64
2023-02-06T05:09:20.089Z,0.61
2023-02-06T05:11:46.709Z,0.61
2023-02-06T05:14:13.110Z,0.61
2023-02-06T05:16:39.824Z,0.58
2023-02-06T05:19:06.262Z,0.52
2023-02-06T05:21:33.092Z,0.55
2023-02-06T05:23:59.585Z,0.56
2023-02-06T05:26:26.314Z,0.58
2023-02-06T05:28:53.349Z,0.58
2023-02-06T05:31:20.315Z,0.63
2023-02-06T05:33:51.856Z,0.70
2023-02-06T05:36:19.974Z,0.71
2023-02-06T05:38:49.604Z,0.68
2023-02-06T05:41:17.096Z,0.75
2023-02-06T05:43:43.630Z,0.82
2023-02-06T05:46:12.984Z,0.89
2023-02-06T05:48:40.248Z,0.81
2023-02-06T05:51:07.072Z,0.88
2023-02-06T05:53:33.569Z,0.88
2023-02-06T05:56:00.539Z,0.97
2023-02-06T05:58:27.308Z,0.99
2023-02-06T06:00:53.880Z,1.05
2023-02-06T06:03:20.549Z,1.01
2023-02-06T06:05:47.072Z,0.96
2023-02-06T06:08:13.633Z,1.04
2023-02-06T06:10:40.455Z,0.97
2023-02-06T06:13:07.020Z,0.93
2023-02-06T06:15:33.896Z,0.94
2023-02-06T06:18:01.589Z,0.97
2023-02-06T06:20:28.260Z,0.95
2023-02-06T06:22:55.045Z,1.05
2023-02-06T06:25:21.587Z,1.08
2023-02-06T06:27:48.179Z,1.09
2023-02-06T06:30:15.034Z,1.09
2023-02-06T06:32:41.859Z,1.07
2023-02-06T06:35:08.976Z,1.01
2023-02-06T06:37:36.030Z,0.94
2023-02-06T06:40:03.910Z,0.95
2023-02-06T06:42:30.787Z,0.84
2023-02-06T06:44:59.708Z,0.95
2023-02-06T06:47:27.386Z,1.01
2023-02-06T06:49:54.773Z,0.97
2023-02-06T06:52:25.274Z,1.10
2023-02-06T06:54:52.951Z,1.13
2023-02-06T06:57:21.230Z,1.05
2023-02-06T06:59:47.850Z,1.05
2023-02-06T07:02:14.368Z,0.98
2023-02-06T07:04:40.892Z,1.10
2023-02-06T07:07:07.962Z,1.14
2023-02-06T07:09:34.911Z,1.16
2023-02-06T07:12:01.491Z,1.11
2023-02-06T07:14:27.909Z,1.19
2023-02-06T07:16:56.123Z,1.15
2023-02-06T07:19:22.985Z,1.16
2023-02-06T07:21:49.422Z,1.20
2023-02-06T07:24:15.888Z,1.18
2023-02-06T07:26:43.304Z,1.27
2023-02-06T07:29:09.821Z,1.31
2023-02-06T07:31:36.276Z,1.31
2023-02-06T07:34:02.811Z,1.40
2023-02-06T07:36:29.557Z,1.43
2023-02-06T07:38:56.045Z,1.43
2023-02-06T07:41:22.672Z,1.45
2023-02-06T07:43:49.724Z,1.48
2023-02-06T07:46:16.549Z,1.49
2023-02-06T07:48:43.119Z,1.52
2023-02-06T07:51:10.299Z,1.57
2023-02-06T07:53:37.676Z,1.47
2023-02-06T07:56:16.211Z,1.39
2023-02-06T07:58:43.213Z,1.48
2023-02-06T08:01:09.880Z,1.53
2023-02-06T08:03:36.669Z,1.60
2023-02-06T08:06:11.987Z,1.66
2023-02-06T08:08:38.752Z,1.71
2023-02-06T08:11:11.340Z,1.69
2023-02-06T08:13:38.648Z,1.72
2023-02-06T08:16:07.371Z,1.74
2023-02-06T08:18:34.573Z,1.69
2023-02-06T08:21:06.529Z,1.74
2023-02-06T08:23:33.549Z,1.72
2023-02-06T08:26:15.588Z,1.71
2023-02-06T08:28:43.902Z,1.75
2023-02-06T08:31:10.444Z,1.75
2023-02-06T08:33:37.218Z,1.81
2023-02-06T08:36:05.416Z,1.67
2023-02-06T08:38:32.120Z,1.70
2023-02-06T08:40:58.623Z,1.59
2023-02-06T08:43:25.117Z,1.73
2023-02-06T08:45:53.472Z,1.82
2023-02-06T08:48:20.368Z,1.86
2023-02-06T08:50:50.419Z,1.87
2023-02-06T08:53:17.390Z,1.82
2023-02-06T08:55:44.097Z,1.69
2023-02-06T08:58:11.050Z,1.83
2023-02-06T09:00:37.452Z,1.95
2023-02-06T09:03:05.389Z,2.05
2023-02-06T09:05:32.381Z,2.11
2023-02-06T09:07:59.166Z,2.20
2023-02-06T09:10:27.742Z,2.27
2023-02-06T09:12:54.948Z,2.24
2023-02-06T09:15:22.153Z,2.23
2023-02-06T09:17:48.966Z,2.32
2023-02-06T09:20:15.674Z,2.32
2023-02-06T09:22:44.501Z,2.26
2023-02-06T09:25:11.089Z,2.39
2023-02-06T09:27:38.290Z,2.47
2023-02-06T09:30:05.485Z,2.53
2023-02-06T09:32:32.246Z,2.51
2023-02-06T09:34:58.845Z,2.54
2023-02-06T09:37:25.535Z,2.57
2023-02-06T09:39:51.962Z,2.57
2023-02-06T09:42:35.765Z,2.66
2023-02-06T09:45:14.314Z,2.73
2023-02-06T09:47:47.464Z,2.62
2023-02-06T09:50:17.712Z,2.74
2023-02-06T09:52:44.374Z,2.83
2023-02-06T09:55:30.615Z,2.93
2023-02-06T09:58:22.320Z,2.98
2023-02-06T10:00:58.438Z,2.97
2023-02-06T10:03:47.343Z,3.07
2023-02-06T10:06:34.289Z,3.14
2023-02-06T10:09:14.000Z,3.16
2023-02-06T10:11:48.328Z,3.19
2023-02-06T10:14:42.769Z,2.99
2023-02-06T10:17:19.728Z,3.06
2023-02-06T10:20:04.168Z,2.86
2023-02-06T10:23:03.263Z,2.98
2023-02-06T10:25:42.214Z,3.15
2023-02-06T10:28:30.648Z,3.38
2023-02-06T10:31:14.681Z,3.50
2023-02-06T10:33:49.920Z,3.55
2023-02-06T10:36:50.884Z,3.69
2023-02-06T10:39:32.378Z,3.78
2023-02-06T10:42:04.829Z,3.99
2023-02-06T10:44:51.593Z,3.84
2023-02-06T10:47:32.536Z,3.79
2023-02-06T10:50:18.272Z,3.82
2023-02-06T10:52:45.664Z,3.96
2023-02-06T10:55:22.648Z,4.00
2023-02-06T10:57:54.402Z,3.95
2023-02-06T11:00:28.222Z,4.04
2023-02-06T11:03:08.184Z,4.10
2023-02-06T11:05:36.379Z,4.10
2023-02-06T11:08:09.457Z,4.10
2023-02-06T11:10:36.564Z,4.21
2023-02-06T11:13:22.094Z,4.37
2023-02-06T11:16:08.333Z,4.34
2023-02-06T11:18:39.257Z,4.45
2023-02-06T11:21:08.281Z,4.56
2023-02-06T11:23:36.506Z,4.34
2023-02-06T11:26:14.387Z,4.31
2023-02-06T11:28:53.965Z,4.43
2023-02-06T11:31:38.351Z,4.62
2023-02-06T11:34:05.314Z,4.98
2023-02-06T11:36:35.257Z,5.31
2023-02-06T11:39:06.468Z,5.41
2023-02-06T11:41:33.609Z,5.28
2023-02-06T11:44:06.446Z,5.14
2023-02-06T11:46:35.712Z,4.98
2023-02-06T11:49:24.517Z,4.99
2023-02-06T11:51:53.781Z,5.00
2023-02-06T11:54:29.095Z,4.95
2023-02-06T11:57:03.483Z,4.88
2023-02-06T11:59:34.288Z,5.17
2023-02-06T12:02:05.342Z,5.61
2023-02-06T12:04:37.505Z,5.65
2023-02-06T12:07:22.960Z,5.61
2023-02-06T12:09:49.619Z,6.12
2023-02-06T12:12:36.848Z,6.41
2023-02-06T12:15:36.237Z,6.83
2023-02-06T12:18:09.106Z,6.87
2023-02-06T12:20:45.770Z,7.05
2023-02-06T12:23:20.408Z,7.08
2023-02-06T12:25:54.618Z,6.99
2023-02-06T12:28:31.032Z,6.91
2023-02-06T12:31:01.461Z,6.62
2023-02-06T12:33:35.384Z,6.72
2023-02-06T12:36:12.891Z,6.87
2023-02-06T12:39:02.278Z,6.51
2023-02-06T12:41:46.541Z,6.61
2023-02-06T12:44:37.061Z,6.80
2023-02-06T12:47:12.692Z,6.94
2023-02-06T12:50:22.200Z,6.56
2023-02-06T12:53:00.502Z,6.72
2023-02-06T12:55:31.844Z,6.47
2023-02-06T12:57:58.709Z,6.51
2023-02-06T13:00:55.092Z,6.21
2023-02-06T13:03:28.587Z,6.26
2023-02-06T13:06:15.277Z,6.60
2023-02-06T13:08:59.229Z,6.51
2023-02-06T13:11:35.740Z,6.53
2023-02-06T13:14:06.656Z,6.53
2023-02-06T13:16:44.105Z,6.47
2023-02-06T13:19:40.051Z,6.92
2023-02-06T13:22:09.591Z,7.38
2023-02-06T13:24:44.644Z,6.75
2023-02-06T13:27:12.902Z,7.34
2023-02-06T13:29:42.704Z,7.28
2023-02-06T13:32:12.497Z,7.36
2023-02-06T13:34:46.523Z,6.86
2023-02-06T13:37:39.359Z,6.56
2023-02-06T13:40:24.538Z,6.60
2023-02-06T13:43:20.671Z,6.51
2023-02-06T13:46:06.732Z,6.39
2023-02-06T13:48:57.812Z,6.79
2023-02-06T13:51:33.485Z,6.54
2023-02-06T13:54:23.217Z,7.30
2023-02-06T13:57:15.831Z,7.54
2023-02-06T13:59:45.508Z,8.11
2023-02-06T14:02:18.572Z,7.54
2023-02-06T14:04:46.354Z,7.45
2023-02-06T14:07:29.752Z,7.36
2023-02-06T14:09:56.463Z,8.18
2023-02-06T14:12:44.695Z,8.33
2023-02-06T14:15:48.727Z,7.75
2023-02-06T14:18:43.608Z,7.52
2023-02-06T14:21:21.597Z,8.03
2023-02-06T14:24:16.206Z,7.67
2023-02-06T14:27:17.174Z,7.55
2023-02-06T14:30:03.490Z,7.46
2023-02-06T14:32:53.971Z,6.99
2023-02-06T14:35:31.927Z,6.76
2023-02-06T14:38:17.428Z,6.92
2023-02-06T14:40:48.947Z,7.57
2023-02-06T14:43:19.952Z,7.37
2023-02-06T14:46:06.804Z,7.42
2023-02-06T14:48:46.980Z,8.38
2023-02-06T14:51:32.181Z,7.97
2023-02-06T14:54:01.797Z,7.74
2023-02-06T14:56:37.550Z,7.45
2023-02-06T14:59:13.254Z,6.98
2023-02-06T15:01:40.891Z,7.07
2023-02-06T15:04:13.528Z,6.95
2023-02-06T15:07:02.702Z,7.01
2023-02-06T15:09:38.864Z,6.78
2023-02-06T15:12:21.167Z,7.11
2023-02-06T15:15:16.273Z,6.67
2023-02-06T15:17:43.774Z,6.41
2023-02-06T15:20:30.776Z,6.47
2023-02-06T15:23:16.647Z,6.29
2023-02-06T15:26:16.160Z,5.98
2023-02-06T15:28:44.090Z,6.11
2023-02-06T15:31:20.669Z,6.43
2023-02-06T15:33:51.374Z,7.19
2023-02-06T15:36:28.710Z,7.56
2023-02-06T15:38:55.696Z,7.67
2023-02-06T15:41:23.272Z,7.89
2023-02-06T15:43:50.904Z,8.11
2023-02-06T15:46:17.478Z,8.25
2023-02-06T15:48:44.104Z,7.96
2023-02-06T15:51:20.362Z,7.70
2023-02-06T15:53:48.707Z,7.16
2023-02-06T15:56:19.514Z,7.16
2023-02-06T15:58:46.579Z,7.00
2023-02-06T16:01:19.386Z,6.79
2023-02-06T16:03:52.032Z,6.67
2023-02-06T16:06:19.116Z,6.54
2023-02-06T16:08:56.520Z,6.03
2023-02-06T16:11:50.823Z,5.94
2023-02-06T16:14:21.873Z,5.99
2023-02-06T16:17:01.382Z,5.79
2023-02-06T16:19:41.109Z,5.91
2023-02-06T16:22:17.668Z,5.75
2023-02-06T16:24:44.869Z,5.36
2023-02-06T16:27:17.919Z,5.40
2023-02-06T16:29:51.167Z,5.46
2023-02-06T16:32:22.829Z,5.45
2023-02-06T16:34:50.375Z,5.36
2023-02-06T16:37:20.370Z,5.32
2023-02-06T16:39:47.552Z,5.30
2023-02-06T16:42:34.759Z,5.36
2023-02-06T16:45:07.684Z,5.35
2023-02-06T16:47:34.130Z,5.27
2023-02-06T16:50:01.291Z,5.25
2023-02-06T16:52:31.455Z,5.35
2023-02-06T16:54:58.994Z,5.18
2023-02-06T16:57:41.828Z,5.20
2023-02-06T17:00:17.316Z,5.12
2023-02-06T17:02:44.849Z,5.05
2023-02-06T17:05:11.698Z,5.08
2023-02-06T17:07:38.307Z,5.13
2023-02-06T17:10:05.613Z,5.04
2023-02-06T17:12:32.554Z,4.91
2023-02-06T17:14:59.313Z,4.92
2023-02-06T17:17:26.383Z,4.83
2023-02-06T17:19:53.422Z,4.75
2023-02-06T17:22:20.039Z,4.58
2023-02-06T17:24:46.581Z,4.51
2023-02-06T17:27:19.526Z,4.51
2023-02-06T17:29:47.666Z,4.46
2023-02-06T17:32:16.206Z,4.41
2023-02-06T17:34:43.162Z,4.29
2023-02-06T17:37:20.284Z,4.24
2023-02-06T17:39:51.301Z,4.28
2023-02-06T17:42:18.069Z,4.29
2023-02-06T17:44:46.068Z,4.29
2023-02-06T17:47:12.647Z,4.10
2023-02-06T17:49:39.391Z,3.99
2023-02-06T17:52:05.845Z,3.95
2023-02-06T17:54:32.332Z,3.98
2023-02-06T17:56:59.300Z,3.91
2023-02-06T17:59:25.834Z,3.90
2023-02-06T18:01:52.672Z,3.88
2023-02-06T18:04:21.219Z,3.81
2023-02-06T18:06:48.047Z,3.81
2023-02-06T18:09:14.853Z,3.71
2023-02-06T18:11:41.640Z,3.74
2023-02-06T18:14:08.174Z,3.63
2023-02-06T18:16:34.745Z,3.65
2023-02-06T18:19:02.279Z,3.61
2023-02-06T18:21:31.121Z,3.69
2023-02-06T18:23:58.235Z,3.63
2023-02-06T18:26:25.300Z,3.63
2023-02-06T18:28:51.871Z,3.51
2023-02-06T18:31:28.016Z,3.47
2023-02-06T18:33:55.737Z,3.38
2023-02-06T18:36:23.501Z,3.35
2023-02-06T18:38:50.224Z,3.28
2023-02-06T18:41:36.450Z,3.28
2023-02-06T18:44:08.273Z,3.13
2023-02-06T18:46:35.636Z,3.15
2023-02-06T18:49:02.153Z,3.16
2023-02-06T18:51:29.616Z,3.14
2023-02-06T18:53:58.012Z,3.13
2023-02-06T18:56:24.627Z,3.10
2023-02-06T18:58:51.053Z,2.99
2023-02-06T19:01:22.444Z,2.98
2023-02-06T19:03:51.450Z,2.83
2023-02-06T19:06:20.187Z,2.71
2023-02-06T19:08:46.915Z,2.62
2023-02-06T19:11:14.082Z,2.55
2023-02-06T19:13:40.985Z,2.56
2023-02-06T19:16:16.502Z,2.53
2023-02-06T19:18:45.667Z,2.45
2023-02-06T19:21:18.119Z,2.43
2023-02-06T19:23:45.908Z,2.41
2023-02-06T19:26:16.710Z,2.46
2023-02-06T19:28:43.848Z,2.48
2023-02-06T19:31:12.084Z,2.36
2023-02-06T19:33:41.009Z,2.31
2023-02-06T19:36:13.527Z,2.21
2023-02-06T19:38:40.629Z,2.23
2023-02-06T19:41:11.429Z,2.17
2023-02-06T19:43:38.286Z,2.23
2023-02-06T19:46:14.062Z,2.05
2023-02-06T19:48:43.632Z,2.04
2023-02-06T19:51:14.624Z,2.10
2023-02-06T19:53:45.606Z,1.99
2023-02-06T19:56:13.775Z,2.06
2023-02-06T19:58:41.552Z,2.07
2023-02-06T20:01:13.726Z,2.13
2023-02-06T20:03:40.622Z,2.10
2023-02-06T20:06:10.529Z,2.13
2023-02-06T20:08:38.958Z,2.03
2023-02-06T20:11:07.231Z,2.00
2023-02-06T20:13:35.130Z,2.07
2023-02-06T20:16:03.843Z,2.02
2023-02-06T20:18:31.345Z,2.04
2023-02-06T20:20:58.079Z,1.97
2023-02-06T20:23:24.875Z,1.89
2023-02-06T20:25:51.934Z,1.97
2023-02-06T20:28:19.369Z,1.94
2023-02-06T20:30:45.879Z,1.92
2023-02-06T20:33:12.738Z,1.80
2023-02-06T20:35:40.314Z,1.85
2023-02-06T20:38:07.093Z,1.85
2023-02-06T20:40:34.126Z,1.83
2023-02-06T20:43:00.654Z,1.79
2023-02-06T20:45:27.613Z,1.81
2023-02-06T20:47:54.288Z,1.82
2023-02-06T20:50:21.464Z,1.79
2023-02-06T20:52:47.866Z,1.84
2023-02-06T20:55:14.393Z,1.84
2023-02-06T20:57:41.147Z,1.70
2023-02-06T21:00:08.478Z,1.73
2023-02-06T21:02:34.922Z,1.72
2023-02-06T21:05:01.804Z,1.71
2023-02-06T21:07:28.458Z,1.68
2023-02-06T21:09:55.048Z,1.72
2023-02-06T21:12:21.584Z,1.56
2023-02-06T21:14:47.989Z,1.67
2023-02-06T21:17:14.448Z,1.63
2023-02-06T21:19:41.065Z,1.69
2023-02-06T21:22:07.536Z,1.59
2023-02-06T21:24:34.110Z,1.64
2023-02-06T21:27:00.560Z,1.62
2023-02-06T21:29:27.122Z,1.59
2023-02-06T21:32:07.236Z,1.55
2023-02-06T21:34:38.959Z,1.58
2023-02-06T21:37:06.498Z,1.48
2023-02-06T21:39:33.070Z,1.42
2023-02-06T21:42:01.499Z,1.38
2023-02-06T21:44:28.814Z,1.36
2023-02-06T21:46:56.047Z,1.35
2023-02-06T21:49:23.996Z,1.32
2023-02-06T21:51:51.649Z,1.26
2023-02-06T21:54:18.557Z,1.11
2023-02-06T21:56:45.261Z,1.13
2023-02-06T21:59:12.806Z,1.12
2023-02-06T22:01:41.354Z,1.13
2023-02-06T22:04:10.130Z,1.17
2023-02-06T22:06:37.576Z,1.11
2023-02-06T22:09:07.646Z,1.16
2023-02-06T22:11:39.642Z,1.10
2023-02-06T22:14:10.924Z,1.12
2023-02-06T22:16:37.494Z,1.17
2023-02-06T22:19:05.097Z,1.12
2023-02-06T22:21:32.866Z,1.11
2023-02-06T22:24:01.561Z,1.06
2023-02-06T22:26:33.734Z,1.02
2023-02-06T22:29:00.737Z,1.06
2023-02-06T22:31:30.806Z,1.09
2023-02-06T22:33:59.039Z,0.95
2023-02-06T22:36:28.042Z,0.90
2023-02-06T22:39:00.330Z,0.96
2023-02-06T22:41:27.597Z,0.99
2023-02-06T22:43:54.088Z,0.98
2023-02-06T22:46:24.127Z,0.92
2023-02-06T22:48:51.287Z,0.88
2023-02-06T22:51:18.904Z,0.97
2023-02-06T22:53:45.539Z,0.96
2023-02-06T22:56:27.334Z,1.02
2023-02-06T22:58:55.613Z,0.97
2023-02-06T23:01:25.159Z,0.95
2023-02-06T23:03:53.279Z,0.96
2023-02-06T23:06:21.666Z,0.96
2023-02-06T23:08:48.318Z,1.00
2023-02-06T23:11:15.092Z,1.05
2023-02-06T23:13:41.766Z,0.98
2023-02-06T23:16:09.563Z,1.02
2023-02-06T23:18:36.504Z,1.04
2023-02-06T23:21:07.040Z,1.05
2023-02-06T23:23:35.776Z,0.98
2023-02-06T23:26:02.738Z,1.03
2023-02-06T23:28:29.811Z,1.05
2023-02-06T23:30:56.207Z,1.02
2023-02-06T23:33:22.947Z,1.04
2023-02-06T23:35:49.680Z,1.10
2023-02-06T23:38:16.892Z,1.10
2023-02-06T23:40:43.572Z,1.11
2023-02-06T23:43:10.634Z,1.11
2023-02-06T23:45:37.630Z,1.11
2023-02-06T23:48:04.448Z,1.08
2023-02-06T23:50:31.092Z,1.07
2023-02-06T23:52:57.512Z,1.05
2023-02-06T23:55:27.878Z,1.05
2023-02-06T23:57:54.408Z,1.04
